createdAt,value
2023-01-18T12:28:23.853Z,53.78
2023-01-18T12:31:06.139Z,55.35
2023-01-18T12:34:01.769Z,56.13
2023-01-18T12:36:49.501Z,55.95
2023-01-18T12:39:54.301Z,58.35
2023-01-18T12:42:55.647Z,56.83
2023-01-18T12:45:41.646Z,56.08
2023-01-18T12:48:28.917Z,57.45
2023-01-18T12:50:58.959Z,55.75
2023-01-18T12:53:44.811Z,58.00
2023-01-18T12:56:20.469Z,56.10
2023-01-18T12:58:56.679Z,56.10
2023-01-18T13:01:31.605Z,59.92
2023-01-18T13:04:11.563Z,54.85
2023-01-18T13:06:41.864Z,55.80
2023-01-18T13:09:14.948Z,56.20
2023-01-18T13:11:44.705Z,56.47
2023-01-18T13:14:41.346Z,57.20
2023-01-18T13:17:18.340Z,55.78
2023-01-18T13:20:00.573Z,57.40
2023-01-18T13:22:40.925Z,57.65
2023-01-18T13:25:25.121Z,56.63
2023-01-18T13:28:05.478Z,56.10
2023-01-18T13:31:02.321Z,55.65
2023-01-18T13:33:34.854Z,55.25
2023-01-18T13:36:08.162Z,55.47
2023-01-18T13:38:49.273Z,50.97
2023-01-18T13:41:27.659Z,51.17
2023-01-18T13:44:32.627Z,49.38
2023-01-18T13:47:01.012Z,50.22
2023-01-18T13:49:45.561Z,52.13
2023-01-18T13:52:30.627Z,51.95
2023-01-18T13:55:02.634Z,52.25
2023-01-18T13:57:33.980Z,53.35
2023-01-18T14:00:03.791Z,52.60
2023-01-18T14:02:45.603Z,52.85
2023-01-18T14:05:25.556Z,56.30
2023-01-18T14:08:00.471Z,56.08
2023-01-18T14:10:30.647Z,52.72
2023-01-18T14:13:02.556Z,52.15
2023-01-18T14:15:47.249Z,50.05
2023-01-18T14:18:25.480Z,52.17
2023-01-18T14:21:33.821Z,50.92
2023-01-18T14:24:18.637Z,48.75
2023-01-18T14:26:48.139Z,50.55
2023-01-18T14:29:30.584Z,49.83
2023-01-18T14:31:59.498Z,50.35
2023-01-18T14:34:31.309Z,52.28
2023-01-18T14:36:59.780Z,52.50
2023-01-18T14:39:30.471Z,55.60
2023-01-18T14:42:02.951Z,53.97
2023-01-18T14:44:58.366Z,51.88
2023-01-18T14:47:31.668Z,51.67
2023-01-18T14:50:04.189Z,51.95
2023-01-18T14:52:34.903Z,52.33
2023-01-18T14:55:04.612Z,51.85
2023-01-18T14:57:32.566Z,51.00
2023-01-18T15:00:18.617Z,50.38
2023-01-18T15:02:47.088Z,51.53
2023-01-18T15:05:18.198Z,53.45
2023-01-18T15:07:54.413Z,51.78
2023-01-18T15:10:24.613Z,53.88
2023-01-18T15:12:59.653Z,51.50
2023-01-18T15:15:36.248Z,51.67
2023-01-18T15:18:11.375Z,49.75
2023-01-18T15:20:52.495Z,50.70
2023-01-18T15:23:22.517Z,48.40
2023-01-18T15:25:52.962Z,49.17
2023-01-18T15:28:24.080Z,49.78
2023-01-18T15:30:54.940Z,51.20
2023-01-18T15:33:25.293Z,50.38
2023-01-18T15:36:03.846Z,50.53
2023-01-18T15:38:32.631Z,51.80
2023-01-18T15:41:19.415Z,50.72
2023-01-18T15:43:48.204Z,52.45
2023-01-18T15:46:17.587Z,51.70
2023-01-18T15:48:53.364Z,49.13
2023-01-18T15:51:22.993Z,52.65
2023-01-18T15:53:56.701Z,54.50
2023-01-18T15:56:33.055Z,52.65
2023-01-18T15:59:07.108Z,50.50
2023-01-18T16:01:35.961Z,52.72
2023-01-18T16:04:12.168Z,52.80
2023-01-18T16:06:40.779Z,53.58
2023-01-18T16:09:12.906Z,52.65
2023-01-18T16:11:41.408Z,51.97
2023-01-18T16:14:38.623Z,51.05
2023-01-18T16:17:20.378Z,50.10
2023-01-18T16:19:57.873Z,53.42
2023-01-18T16:22:36.818Z,53.97
2023-01-18T16:25:10.753Z,53.10
2023-01-18T16:27:54.096Z,52.47
2023-01-18T16:30:34.240Z,53.63
2023-01-18T16:33:18.048Z,54.53
2023-01-18T16:35:46.415Z,52.78
2023-01-18T16:38:16.691Z,53.53
2023-01-18T16:40:47.385Z,54.30
2023-01-18T16:43:18.741Z,55.50
2023-01-18T16:45:48.913Z,54.38
2023-01-18T16:48:26.360Z,57.63
2023-01-18T16:50:56.417Z,55.25
2023-01-18T16:53:24.835Z,56.97
2023-01-18T16:55:52.597Z,54.70
2023-01-18T16:58:21.783Z,54.15
2023-01-18T17:01:01.115Z,56.00
2023-01-18T17:03:29.731Z,53.08
2023-01-18T17:05:57.701Z,54.08
2023-01-18T17:08:25.944Z,55.17
2023-01-18T17:10:55.057Z,53.92
2023-01-18T17:13:24.115Z,52.25
2023-01-18T17:15:53.781Z,79.45
2023-01-18T17:18:26.051Z,93.45
2023-01-18T17:20:55.375Z,57.15
2023-01-18T17:23:26.003Z,51.45
2023-01-18T17:25:56.650Z,50.95
2023-01-18T17:28:27.781Z,52.70
2023-01-18T17:30:57.006Z,53.42
2023-01-18T17:33:27.541Z,50.95
2023-01-18T17:35:56.011Z,52.00
2023-01-18T17:38:28.236Z,51.05
2023-01-18T17:40:58.791Z,50.70
2023-01-18T17:43:35.057Z,50.47
2023-01-18T17:46:04.662Z,52.90
2023-01-18T17:48:33.546Z,51.85
2023-01-18T17:51:01.857Z,52.00
2023-01-18T17:53:30.350Z,53.13
2023-01-18T17:55:58.376Z,51.67
2023-01-18T17:58:28.000Z,71.63
2023-01-18T18:00:55.923Z,56.90
2023-01-18T18:03:24.458Z,52.55
2023-01-18T18:05:58.472Z,53.53
2023-01-18T18:08:27.319Z,51.45
2023-01-18T18:10:55.802Z,53.22
2023-01-18T18:13:24.751Z,53.97
2023-01-18T18:15:54.804Z,54.28
2023-01-18T18:18:25.086Z,56.78
2023-01-18T18:21:01.459Z,52.03
2023-01-18T18:23:32.415Z,57.50
2023-01-18T18:26:01.825Z,55.33
2023-01-18T18:28:30.799Z,56.25
2023-01-18T18:30:59.772Z,55.13
2023-01-18T18:33:29.678Z,53.85
2023-01-18T18:35:59.395Z,57.78
2023-01-18T18:38:27.760Z,56.80
2023-01-18T18:41:07.435Z,55.90
2023-01-18T18:43:36.460Z,55.95
2023-01-18T18:46:04.419Z,59.95
2023-01-18T18:48:32.750Z,57.22
2023-01-18T18:51:00.939Z,57.83
2023-01-18T18:53:37.638Z,57.65
2023-01-18T18:56:09.926Z,55.17
2023-01-18T18:58:42.638Z,57.35
2023-01-18T19:01:30.580Z,58.42
2023-01-18T19:03:59.604Z,55.83
2023-01-18T19:06:28.710Z,59.50
2023-01-18T19:08:57.635Z,60.30
2023-01-18T19:11:26.892Z,61.50
2023-01-18T19:13:57.013Z,60.25
2023-01-18T19:16:26.252Z,60.35
2023-01-18T19:18:55.096Z,60.95
2023-01-18T19:21:23.092Z,62.03
2023-01-18T19:23:51.927Z,60.03
2023-01-18T19:26:20.052Z,61.45
2023-01-18T19:28:48.572Z,61.97
2023-01-18T19:31:16.736Z,59.67
2023-01-18T19:33:45.041Z,60.90
2023-01-18T19:36:15.780Z,58.42
2023-01-18T19:38:48.040Z,54.58
2023-01-18T19:41:19.403Z,57.40
2023-01-18T19:43:51.116Z,56.47
2023-01-18T19:46:20.744Z,59.05
2023-01-18T19:48:49.206Z,58.83
2023-01-18T19:51:22.458Z,59.13
2023-01-18T19:53:56.070Z,56.08
2023-01-18T19:56:29.314Z,56.30
2023-01-18T19:58:58.156Z,55.67
2023-01-18T20:01:36.238Z,55.95
2023-01-18T20:04:08.389Z,57.28
2023-01-18T20:06:40.113Z,55.72
2023-01-18T20:09:18.393Z,57.17
2023-01-18T20:11:47.564Z,55.95
2023-01-18T20:14:16.805Z,58.72
2023-01-18T20:16:46.309Z,57.60
2023-01-18T20:19:16.665Z,59.90
2023-01-18T20:21:44.619Z,58.35
2023-01-18T20:24:13.201Z,57.25
2023-01-18T20:26:42.175Z,59.08
2023-01-18T20:29:13.461Z,57.63
2023-01-18T20:31:48.487Z,56.35
2023-01-18T20:36:50.608Z,54.00
2023-01-18T20:39:20.825Z,52.63
2023-01-18T20:41:50.314Z,57.13
2023-01-18T20:44:19.474Z,55.15
2023-01-18T20:46:49.821Z,55.88
2023-01-18T20:49:24.521Z,57.90
2023-01-18T20:51:53.184Z,60.40
2023-01-18T20:54:22.087Z,59.90
2023-01-18T20:56:51.527Z,58.55
2023-01-18T20:59:21.087Z,59.25
2023-01-18T21:01:49.117Z,59.75
2023-01-18T21:04:17.427Z,59.88
2023-01-18T21:06:46.816Z,57.75
2023-01-18T21:09:15.094Z,59.38
2023-01-18T21:11:43.143Z,60.22
2023-01-18T21:14:12.049Z,55.35
2023-01-18T21:16:40.303Z,57.63
2023-01-18T21:19:10.536Z,57.08
2023-01-18T21:21:39.477Z,55.85
2023-01-18T21:24:08.051Z,56.05
2023-01-18T21:26:36.711Z,56.15
2023-01-18T21:29:06.455Z,56.55
2023-01-18T21:31:35.601Z,56.33
2023-01-18T21:34:05.087Z,57.97
2023-01-18T21:36:32.956Z,52.83
2023-01-18T21:39:01.204Z,52.47
2023-01-18T21:41:47.681Z,51.90
2023-01-18T21:44:34.267Z,53.35
2023-01-18T21:47:02.525Z,54.35
2023-01-18T21:50:15.904Z,53.08
2023-01-18T21:52:57.321Z,52.55
2023-01-18T21:55:26.210Z,51.05
2023-01-18T21:58:12.586Z,52.40
2023-01-18T22:00:41.377Z,50.97
2023-01-18T22:03:10.092Z,50.53
2023-01-18T22:05:40.888Z,52.00
2023-01-18T22:08:10.542Z,49.70
2023-01-18T22:10:40.807Z,49.30
2023-01-18T22:13:08.749Z,50.90
2023-01-18T22:15:37.040Z,51.20
2023-01-18T22:18:06.170Z,50.90
2023-01-18T22:20:34.414Z,50.20
2023-01-18T22:23:02.650Z,50.03
2023-01-18T22:25:32.563Z,49.33
2023-01-18T22:28:01.141Z,50.85
2023-01-18T22:30:30.849Z,51.95
2023-01-18T22:32:58.902Z,54.08
2023-01-18T22:35:27.162Z,56.03
2023-01-18T22:37:55.066Z,56.00
2023-01-18T22:40:23.215Z,55.50
2023-01-18T22:42:52.362Z,59.15
2023-01-18T22:45:21.834Z,59.30
2023-01-18T22:47:50.723Z,56.92
2023-01-18T22:50:19.975Z,59.85
2023-01-18T22:52:48.165Z,59.30
2023-01-18T22:55:17.541Z,58.72
2023-01-18T22:57:45.431Z,56.70
2023-01-18T23:00:14.065Z,57.15
2023-01-18T23:02:42.045Z,57.80
2023-01-18T23:05:10.323Z,55.50
2023-01-18T23:07:38.907Z,52.83
2023-01-18T23:10:07.242Z,52.58
2023-01-18T23:12:35.346Z,53.50
2023-01-18T23:15:21.804Z,53.33
2023-01-18T23:17:50.284Z,51.45
2023-01-18T23:20:20.123Z,51.80
2023-01-18T23:22:48.175Z,52.65
2023-01-18T23:25:16.838Z,52.28
2023-01-18T23:27:45.044Z,53.42
2023-01-18T23:30:14.340Z,52.72
2023-01-18T23:32:42.541Z,53.67
2023-01-18T23:35:11.203Z,53.25
2023-01-18T23:37:39.269Z,55.53
2023-01-18T23:40:27.219Z,53.20
2023-01-18T23:43:13.646Z,55.08
2023-01-18T23:48:48.937Z,52.60
2023-01-18T23:51:35.807Z,56.53
2023-01-18T23:54:19.087Z,58.53
2023-01-18T23:56:48.167Z,56.45
2023-01-18T23:59:15.993Z,56.65
